createdAt,value
2019-06-01T00:01:10.388Z,9.00
2019-06-01T00:06:16.359Z,9.07
2019-06-01T00:11:20.740Z,9.20
2019-06-01T00:16:25.211Z,9.17
2019-06-01T00:21:29.569Z,8.50
2019-06-01T00:26:33.930Z,8.37
2019-06-01T00:31:38.359Z,8.07
2019-06-01T00:36:43.543Z,8.77
2019-06-01T00:41:48.127Z,8.00
2019-06-01T00:46:53.578Z,7.60
2019-06-01T00:51:57.924Z,8.13
2019-06-01T00:57:02.275Z,7.57
2019-06-01T01:02:06.651Z,7.63
2019-06-01T01:07:11.025Z,7.50
2019-06-01T01:12:15.401Z,7.40
2019-06-01T01:17:19.749Z,7.87
2019-06-01T01:22:24.112Z,7.40
2019-06-01T01:27:28.459Z,7.73
2019-06-01T01:32:33.810Z,8.00
2019-06-01T01:37:38.255Z,7.80
2019-06-01T01:42:42.596Z,7.43
2019-06-01T01:47:46.983Z,7.60
2019-06-01T01:52:52.653Z,6.77
2019-06-01T01:57:57.611Z,7.20
2019-06-01T02:03:02.366Z,7.30
2019-06-01T02:08:07.405Z,6.77
2019-06-01T02:13:11.849Z,7.33
2019-06-01T02:18:16.254Z,6.30
2019-06-01T02:23:20.630Z,6.47
2019-06-01T02:28:25.028Z,6.90
2019-06-01T02:33:29.339Z,7.00
2019-06-01T02:38:33.693Z,6.43
2019-06-01T02:43:38.334Z,5.97
2019-06-01T02:48:42.814Z,6.33
2019-06-01T02:53:48.404Z,6.60
2019-06-01T02:58:52.932Z,6.37
2019-06-01T03:03:59.442Z,6.30
2019-06-01T03:09:06.737Z,6.63
2019-06-01T03:14:13.221Z,6.67
2019-06-01T03:19:18.107Z,6.90
2019-06-01T03:24:25.551Z,6.37
2019-06-01T03:29:31.545Z,6.17
2019-06-01T03:34:36.185Z,6.67
2019-06-01T03:39:40.625Z,5.90
2019-06-01T03:44:45.163Z,6.70
2019-06-01T03:49:49.606Z,7.00
2019-06-01T03:54:54.043Z,7.10
2019-06-01T03:59:58.503Z,6.67
2019-06-01T04:05:05.625Z,6.33
2019-06-01T04:10:11.771Z,6.17
2019-06-01T04:15:16.977Z,6.43
2019-06-01T04:20:21.669Z,6.03
2019-06-01T04:25:26.625Z,6.10
2019-06-01T04:30:31.265Z,6.30
2019-06-01T04:35:35.806Z,5.70
2019-06-01T04:40:40.336Z,6.20
2019-06-01T04:45:44.887Z,5.80
2019-06-01T04:50:49.322Z,5.20
2019-06-01T04:55:53.753Z,5.43
2019-06-01T05:00:58.196Z,5.70
2019-06-01T05:06:02.639Z,5.40
2019-06-01T05:11:08.651Z,4.73
2019-06-01T05:16:14.920Z,5.00
2019-06-01T05:21:19.442Z,4.33
2019-06-01T05:26:23.978Z,4.90
2019-06-01T05:31:28.409Z,4.67
2019-06-01T05:36:32.954Z,4.73
2019-06-01T05:41:37.389Z,4.20
2019-06-01T05:46:41.951Z,4.30
2019-06-01T05:51:46.472Z,4.30
2019-06-01T05:56:51.030Z,3.65
2019-06-01T06:01:55.561Z,4.10
2019-06-01T06:06:59.988Z,3.98
2019-06-01T06:12:04.446Z,3.98
2019-06-01T06:17:12.371Z,4.00
2019-06-01T06:22:16.178Z,3.70
2019-06-01T06:27:20.762Z,3.50
2019-06-01T06:32:25.289Z,3.50
2019-06-01T06:37:29.811Z,4.00
2019-06-01T06:42:34.344Z,4.10
2019-06-01T06:47:41.788Z,3.65
2019-06-01T06:52:48.141Z,3.60
2019-06-01T06:57:52.708Z,3.45
2019-06-01T07:02:57.237Z,3.42
2019-06-01T07:08:02.174Z,3.22
2019-06-01T07:13:06.746Z,3.15
2019-06-01T07:18:11.275Z,3.20
2019-06-01T07:23:15.694Z,3.52
2019-06-01T07:28:20.266Z,3.20
2019-06-01T07:33:24.783Z,3.00
2019-06-01T07:38:29.220Z,2.90
2019-06-01T07:43:33.745Z,3.00
2019-06-01T07:48:38.296Z,3.00
2019-06-01T07:53:42.826Z,2.87
2019-06-01T07:58:47.383Z,3.10
2019-06-01T08:03:51.936Z,3.10
2019-06-01T08:08:56.770Z,2.47
2019-06-01T08:14:01.201Z,2.20
2019-06-01T08:19:05.652Z,2.70
2019-06-01T08:24:10.148Z,2.47
2019-06-01T08:29:14.729Z,2.60
2019-06-01T08:34:19.162Z,2.20
2019-06-01T08:39:23.707Z,2.40
2019-06-01T08:44:28.140Z,2.33
2019-06-01T08:49:33.075Z,2.12
2019-06-01T08:54:38.966Z,2.33
2019-06-01T08:59:43.525Z,2.23
2019-06-01T09:04:48.050Z,2.40
2019-06-01T09:09:52.750Z,2.33
2019-06-01T09:14:57.228Z,2.20
2019-06-01T09:20:01.783Z,2.12
2019-06-01T09:25:06.932Z,2.80
2019-06-01T09:30:13.405Z,2.50
2019-06-01T09:35:18.061Z,2.27
2019-06-01T09:40:22.597Z,2.17
2019-06-01T09:45:27.866Z,2.27
2019-06-01T09:50:33.401Z,2.23
2019-06-01T09:55:38.468Z,2.12
2019-06-01T10:00:43.971Z,2.30
2019-06-01T10:06:01.602Z,1.80
2019-06-01T10:10:54.760Z,2.10
2019-06-01T10:15:59.308Z,2.15
2019-06-01T10:21:03.857Z,2.10
2019-06-01T10:26:08.389Z,1.80
2019-06-01T10:31:12.925Z,1.70
2019-06-01T10:36:21.000Z,1.77
2019-06-01T10:41:23.751Z,1.70
2019-06-01T10:46:28.288Z,1.50
2019-06-01T10:51:34.065Z,1.80
2019-06-01T10:56:38.906Z,1.70
2019-06-01T11:01:43.444Z,1.80
2019-06-01T11:06:48.751Z,1.62
2019-06-01T11:11:53.553Z,1.45
2019-06-01T11:16:59.006Z,1.65
2019-06-01T11:22:03.665Z,1.70
2019-06-01T11:27:08.110Z,1.60
2019-06-01T11:32:12.541Z,1.55
2019-06-01T11:37:17.085Z,1.67
2019-06-01T11:42:21.615Z,1.63
2019-06-01T11:47:26.054Z,1.80
2019-06-01T11:52:30.590Z,1.77
2019-06-01T11:57:35.304Z,1.50
2019-06-01T12:02:39.811Z,1.75
2019-06-01T12:07:44.334Z,1.85
2019-06-01T12:12:48.866Z,1.77
2019-06-01T12:17:53.404Z,1.80
2019-06-01T12:22:57.842Z,1.80
2019-06-01T12:28:02.381Z,1.60
2019-06-01T12:33:06.827Z,1.70
2019-06-01T12:38:11.364Z,1.50
2019-06-01T12:43:15.975Z,1.70
2019-06-01T12:48:20.445Z,1.67
2019-06-01T12:53:24.989Z,1.72
2019-06-01T12:58:30.442Z,1.90
2019-06-01T13:03:34.989Z,2.30
2019-06-01T13:08:40.593Z,1.90
2019-06-01T13:13:45.307Z,2.30
2019-06-01T13:18:49.948Z,1.77
2019-06-01T13:23:54.480Z,2.02
2019-06-01T13:28:58.915Z,1.75
2019-06-01T13:34:03.362Z,1.55
2019-06-01T13:39:08.628Z,1.50
2019-06-01T13:44:13.158Z,1.60
2019-06-01T13:49:17.704Z,1.77
2019-06-01T13:54:23.380Z,1.70
2019-06-01T13:59:27.919Z,1.53
2019-06-01T14:04:33.585Z,1.80
2019-06-01T14:09:38.120Z,1.90
2019-06-01T14:14:42.754Z,1.60
2019-06-01T14:19:47.548Z,1.60
2019-06-01T14:25:08.313Z,1.70
2019-06-01T14:29:58.568Z,1.60
2019-06-01T14:35:03.274Z,1.77
2019-06-01T14:40:08.032Z,1.95
2019-06-01T14:45:12.809Z,1.52
2019-06-01T14:50:19.158Z,1.65
2019-06-01T14:55:23.693Z,1.42
2019-06-01T15:00:28.244Z,1.50
2019-06-01T15:05:32.776Z,1.70
2019-06-01T15:10:37.181Z,1.70
2019-06-01T15:15:41.663Z,1.47
2019-06-01T15:20:46.202Z,1.50
2019-06-01T15:25:52.252Z,1.60
2019-06-01T15:30:57.158Z,1.90
2019-06-01T15:36:01.917Z,1.70
2019-06-01T15:41:06.507Z,1.62
2019-06-01T15:46:11.056Z,1.40
2019-06-01T15:51:15.591Z,1.60
2019-06-01T15:56:23.559Z,1.70
2019-06-01T16:01:26.316Z,1.77
2019-06-01T16:06:30.752Z,1.80
2019-06-01T16:11:35.288Z,1.60
2019-06-01T16:16:39.827Z,1.50
2019-06-01T16:21:44.372Z,1.50
2019-06-01T16:26:48.915Z,1.67
2019-06-01T16:31:54.611Z,1.80
2019-06-01T16:36:59.215Z,1.57
2019-06-01T16:42:04.012Z,1.50
2019-06-01T16:47:08.640Z,1.70
2019-06-01T16:52:13.055Z,1.75
2019-06-01T16:57:17.595Z,1.57
2019-06-01T17:02:22.030Z,1.42
2019-06-01T17:07:26.571Z,1.60
2019-06-01T17:12:31.215Z,1.80
2019-06-01T17:17:35.758Z,1.60
2019-06-01T17:22:40.291Z,4.85
2019-06-01T17:27:44.792Z,2.00
2019-06-01T17:32:50.406Z,3.00
2019-06-01T17:37:56.071Z,2.42
2019-06-01T17:43:01.326Z,2.15
2019-06-01T17:48:23.003Z,1.62
2019-06-01T17:53:13.102Z,1.90
2019-06-01T17:58:17.672Z,2.02
2019-06-01T18:03:22.255Z,2.47
2019-06-01T18:08:26.903Z,2.00
2019-06-01T18:13:32.468Z,1.75
2019-06-01T18:18:36.899Z,1.95
2019-06-01T18:23:41.444Z,1.90
2019-06-01T18:28:45.932Z,1.82
2019-06-01T18:33:53.417Z,1.72
2019-06-01T18:38:56.603Z,1.80
2019-06-01T18:44:03.510Z,2.10
2019-06-01T18:49:08.242Z,1.95
2019-06-01T18:54:13.011Z,1.60
2019-06-01T18:59:17.735Z,2.10
2019-06-01T19:04:22.276Z,3.75
2019-06-01T19:09:26.717Z,2.77
2019-06-01T19:14:31.566Z,2.70
2019-06-01T19:19:36.022Z,3.40
2019-06-01T19:24:40.547Z,3.40
2019-06-01T19:29:45.187Z,3.40
2019-06-01T19:34:49.734Z,3.40
2019-06-01T19:39:54.673Z,3.37
2019-06-01T19:44:59.230Z,4.78
2019-06-01T19:50:03.979Z,3.60
2019-06-01T19:55:09.027Z,4.03
2019-06-01T20:00:16.228Z,4.03
2019-06-01T20:05:20.967Z,4.08
2019-06-01T20:10:25.509Z,4.50
2019-06-01T20:15:30.357Z,4.47
2019-06-01T20:20:34.906Z,4.60
2019-06-01T20:25:39.437Z,4.62
2019-06-01T20:30:45.005Z,4.80
2019-06-01T20:35:49.523Z,4.42
2019-06-01T20:40:54.343Z,4.65
2019-06-01T20:45:59.035Z,4.10
2019-06-01T20:51:03.588Z,4.80
2019-06-01T20:56:08.125Z,4.65
2019-06-01T21:01:13.968Z,4.65
2019-06-01T21:06:20.418Z,4.35
2019-06-01T21:11:24.814Z,4.45
2019-06-01T21:16:29.357Z,4.40
2019-06-01T21:21:33.895Z,5.47
2019-06-01T21:26:38.399Z,4.60
2019-06-01T21:31:42.897Z,5.22
2019-06-01T21:36:47.411Z,5.00
2019-06-01T21:41:51.966Z,5.50
2019-06-01T21:46:56.505Z,5.50
2019-06-01T21:52:01.042Z,5.20
2019-06-01T21:57:05.577Z,5.93
2019-06-01T22:02:10.635Z,5.90
2019-06-01T22:07:15.176Z,6.75
2019-06-01T22:12:19.724Z,7.37
2019-06-01T22:17:24.263Z,7.07
2019-06-01T22:22:28.687Z,7.58
2019-06-01T22:27:33.126Z,7.37
2019-06-01T22:32:37.677Z,7.40
2019-06-01T22:37:42.214Z,7.58
2019-06-01T22:42:46.647Z,7.50
2019-06-01T22:47:51.086Z,8.43
2019-06-01T22:52:55.637Z,7.67
2019-06-01T22:58:00.066Z,7.40
2019-06-01T23:03:04.609Z,7.27
2019-06-01T23:08:10.145Z,6.43
2019-06-01T23:13:14.759Z,7.10
2019-06-01T23:18:19.158Z,6.57
2019-06-01T23:23:24.066Z,7.10
2019-06-01T23:28:28.755Z,7.33
2019-06-01T23:33:33.312Z,7.03
2019-06-01T23:38:37.832Z,7.10
2019-06-01T23:43:42.268Z,6.57
2019-06-01T23:48:46.705Z,6.03
2019-06-01T23:53:52.289Z,6.50
2019-06-01T23:58:56.825Z,5.93
